createdAt,value
2018-06-21T00:01:24.972Z,5.07
2018-06-21T00:03:54.253Z,5.50
2018-06-21T00:06:23.550Z,5.27
2018-06-21T00:08:52.913Z,5.33
2018-06-21T00:11:22.231Z,5.50
2018-06-21T00:13:51.480Z,5.17
2018-06-21T00:16:20.476Z,4.90
2018-06-21T00:18:49.687Z,5.87
2018-06-21T00:21:19.059Z,5.10
2018-06-21T00:23:48.364Z,5.30
2018-06-21T00:26:17.623Z,5.03
2018-06-21T00:28:46.909Z,4.90
2018-06-21T00:31:15.960Z,5.40
2018-06-21T00:33:45.274Z,4.73
2018-06-21T00:36:14.509Z,5.07
2018-06-21T00:38:43.858Z,5.43
2018-06-21T00:41:13.503Z,5.20
2018-06-21T00:43:42.867Z,5.50
2018-06-21T00:46:12.113Z,4.90
2018-06-21T00:48:41.411Z,5.20
2018-06-21T00:51:10.642Z,5.37
2018-06-21T00:53:40.003Z,5.13
2018-06-21T00:56:14.432Z,5.00
2018-06-21T00:58:43.792Z,5.10
2018-06-21T01:01:13.549Z,4.93
2018-06-21T01:03:42.817Z,4.70
2018-06-21T01:06:12.150Z,4.60
2018-06-21T01:08:41.415Z,4.70
2018-06-21T01:11:10.781Z,4.60
2018-06-21T01:13:40.216Z,4.97
2018-06-21T01:16:09.553Z,4.87
2018-06-21T01:18:38.870Z,5.57
2018-06-21T01:21:08.089Z,5.10
2018-06-21T01:23:37.321Z,5.20
2018-06-21T01:26:06.568Z,5.47
2018-06-21T01:28:35.830Z,5.10
2018-06-21T01:31:05.124Z,5.27
2018-06-21T01:33:34.352Z,5.10
2018-06-21T01:36:03.691Z,4.50
2018-06-21T01:38:32.950Z,4.97
2018-06-21T01:41:02.176Z,4.63
2018-06-21T01:43:31.438Z,5.00
2018-06-21T01:46:00.724Z,5.27
2018-06-21T01:48:29.967Z,5.27
2018-06-21T01:50:59.268Z,5.80
2018-06-21T01:53:28.476Z,5.60
2018-06-21T01:55:57.716Z,6.53
2018-06-21T01:58:27.016Z,5.60
2018-06-21T02:00:56.253Z,5.83
2018-06-21T02:03:25.515Z,4.90
2018-06-21T02:05:54.885Z,5.30
2018-06-21T02:08:24.173Z,5.20
2018-06-21T02:10:53.439Z,5.70
2018-06-21T02:13:22.699Z,6.00
2018-06-21T02:15:52.033Z,5.70
2018-06-21T02:18:21.229Z,6.50
2018-06-21T02:20:50.520Z,5.50
2018-06-21T02:23:20.296Z,5.97
2018-06-21T02:25:49.568Z,6.07
2018-06-21T02:28:18.794Z,6.03
2018-06-21T02:30:48.065Z,6.60
2018-06-21T02:33:17.318Z,6.43
2018-06-21T02:35:46.706Z,6.90
2018-06-21T02:38:15.986Z,6.73
2018-06-21T02:40:45.258Z,7.10
2018-06-21T02:43:14.523Z,7.47
2018-06-21T02:45:43.765Z,6.40
2018-06-21T02:48:13.095Z,7.40
2018-06-21T02:50:42.360Z,7.47
2018-06-21T02:53:11.663Z,6.90
2018-06-21T02:55:40.914Z,6.53
2018-06-21T02:58:10.187Z,7.07
2018-06-21T03:00:39.522Z,6.23
2018-06-21T03:03:08.766Z,7.50
2018-06-21T03:05:38.108Z,7.73
2018-06-21T03:08:07.391Z,6.93
2018-06-21T03:10:36.635Z,7.90
2018-06-21T03:13:05.890Z,8.70
2018-06-21T03:15:35.167Z,11.53
2018-06-21T03:18:04.473Z,9.87
2018-06-21T03:20:33.740Z,14.40
2018-06-21T03:23:03.140Z,12.80
2018-06-21T03:25:32.481Z,14.80
2018-06-21T03:28:01.757Z,14.83
2018-06-21T03:30:31.054Z,12.20
2018-06-21T03:33:00.317Z,13.13
2018-06-21T03:35:29.689Z,13.17
2018-06-21T03:37:59.525Z,14.10
2018-06-21T03:40:28.821Z,16.27
2018-06-21T03:42:58.086Z,15.10
2018-06-21T03:45:27.386Z,18.00
2018-06-21T03:47:56.652Z,20.17
2018-06-21T03:50:25.957Z,20.40
2018-06-21T03:52:55.222Z,18.70
2018-06-21T03:55:24.558Z,21.53
2018-06-21T03:57:53.924Z,19.47
2018-06-21T04:00:23.457Z,20.80
2018-06-21T04:02:52.690Z,19.10
2018-06-21T04:05:22.067Z,21.27
2018-06-21T04:07:51.335Z,17.77
2018-06-21T04:10:20.633Z,19.17
2018-06-21T04:12:49.997Z,18.07
2018-06-21T04:15:19.290Z,18.30
2018-06-21T04:17:48.606Z,18.30
2018-06-21T04:20:18.067Z,17.43
2018-06-21T04:22:47.484Z,17.27
2018-06-21T04:25:16.769Z,14.83
2018-06-21T04:27:46.077Z,15.80
2018-06-21T04:30:15.775Z,14.20
2018-06-21T04:32:45.044Z,12.77
2018-06-21T04:35:15.156Z,12.60
2018-06-21T04:37:44.485Z,12.63
2018-06-21T04:40:13.990Z,12.70
2018-06-21T04:42:43.255Z,12.70
2018-06-21T04:45:12.558Z,11.80
2018-06-21T04:47:41.941Z,11.80
2018-06-21T04:50:11.340Z,9.30
2018-06-21T04:52:40.817Z,10.73
2018-06-21T04:55:10.107Z,10.77
2018-06-21T04:57:39.468Z,9.87
2018-06-21T05:00:08.715Z,9.80
2018-06-21T05:02:37.983Z,10.03
2018-06-21T05:05:07.281Z,8.63
2018-06-21T05:07:36.599Z,10.50
2018-06-21T05:10:05.934Z,9.20
2018-06-21T05:12:35.322Z,9.20
2018-06-21T05:15:04.671Z,8.67
2018-06-21T05:17:34.484Z,8.03
2018-06-21T05:20:03.886Z,8.30
2018-06-21T05:22:33.201Z,8.70
2018-06-21T05:25:03.397Z,8.73
2018-06-21T05:27:32.714Z,9.13
2018-06-21T05:30:02.106Z,8.30
2018-06-21T05:32:31.414Z,9.40
2018-06-21T05:35:01.200Z,9.17
2018-06-21T05:37:30.523Z,10.53
2018-06-21T05:39:59.901Z,10.13
2018-06-21T05:42:29.273Z,8.50
2018-06-21T05:44:58.622Z,8.03
2018-06-21T05:47:27.956Z,8.10
2018-06-21T05:49:57.497Z,7.10
2018-06-21T05:52:26.769Z,7.37
2018-06-21T05:54:56.079Z,6.60
2018-06-21T05:57:25.333Z,4.60
2018-06-21T05:59:54.662Z,4.67
2018-06-21T06:02:24.052Z,4.20
2018-06-21T06:04:53.341Z,4.50
2018-06-21T06:07:22.969Z,4.13
2018-06-21T06:09:52.307Z,3.40
2018-06-21T06:12:21.581Z,3.13
2018-06-21T06:14:50.828Z,3.43
2018-06-21T06:17:20.171Z,3.23
2018-06-21T06:19:49.600Z,2.90
2018-06-21T06:22:18.838Z,3.20
2018-06-21T06:24:48.098Z,2.63
2018-06-21T06:27:17.392Z,3.10
2018-06-21T06:29:46.680Z,2.87
2018-06-21T06:32:16.229Z,2.57
2018-06-21T06:34:45.499Z,2.27
2018-06-21T06:37:14.766Z,2.10
2018-06-21T06:39:44.077Z,1.70
2018-06-21T06:42:14.109Z,2.10
2018-06-21T06:44:43.464Z,2.17
2018-06-21T06:47:12.777Z,2.13
2018-06-21T06:49:42.093Z,2.60
2018-06-21T06:52:11.325Z,2.00
2018-06-21T06:54:40.600Z,2.77
2018-06-21T06:57:09.931Z,2.53
2018-06-21T06:59:39.238Z,2.80
2018-06-21T07:02:08.612Z,3.20
2018-06-21T07:04:37.954Z,3.70
2018-06-21T07:07:07.323Z,4.67
2018-06-21T07:09:36.575Z,5.33
2018-06-21T07:12:05.875Z,4.70
2018-06-21T07:14:35.236Z,5.10
2018-06-21T07:17:04.516Z,5.93
2018-06-21T07:19:33.837Z,5.60
2018-06-21T07:22:03.080Z,6.90
2018-06-21T07:24:32.412Z,8.00
2018-06-21T07:27:01.695Z,8.60
2018-06-21T07:29:30.949Z,9.10
2018-06-21T07:32:00.268Z,9.17
2018-06-21T07:34:29.510Z,11.47
2018-06-21T07:36:58.837Z,12.10
2018-06-21T07:39:28.132Z,13.33
2018-06-21T07:41:57.466Z,13.90
2018-06-21T07:44:26.803Z,15.23
2018-06-21T07:46:56.110Z,18.17
2018-06-21T07:49:25.377Z,18.83
2018-06-21T07:51:54.643Z,15.90
2018-06-21T07:54:23.996Z,18.60
2018-06-21T07:56:53.300Z,17.60
2018-06-21T07:59:22.580Z,15.00
2018-06-21T08:01:51.880Z,15.90
2018-06-21T08:04:21.186Z,12.57
2018-06-21T08:06:50.507Z,12.53
2018-06-21T08:09:19.832Z,10.93
2018-06-21T08:11:49.222Z,11.47
2018-06-21T08:14:18.574Z,10.13
2018-06-21T08:16:47.887Z,10.90
2018-06-21T08:19:17.190Z,10.10
2018-06-21T08:21:46.488Z,11.90
2018-06-21T08:24:15.878Z,10.53
2018-06-21T08:26:45.186Z,8.20
2018-06-21T08:29:14.789Z,4.73
2018-06-21T08:31:44.484Z,4.70
2018-06-21T08:34:13.849Z,4.07
2018-06-21T08:36:43.178Z,3.83
2018-06-21T08:39:12.548Z,5.10
2018-06-21T08:41:41.875Z,5.70
2018-06-21T08:44:11.201Z,5.60
2018-06-21T08:46:40.512Z,7.17
2018-06-21T08:49:09.898Z,7.23
2018-06-21T08:51:39.231Z,8.23
2018-06-21T08:54:08.523Z,8.40
2018-06-21T08:56:37.975Z,8.07
2018-06-21T08:59:07.315Z,8.83
2018-06-21T09:01:36.620Z,8.10
2018-06-21T09:04:06.118Z,10.30
2018-06-21T09:06:35.590Z,11.07
2018-06-21T09:09:07.834Z,13.40
2018-06-21T09:11:37.199Z,16.23
2018-06-21T09:14:06.537Z,15.63
2018-06-21T09:16:35.868Z,15.50
2018-06-21T09:19:05.266Z,15.87
2018-06-21T09:21:34.652Z,16.37
2018-06-21T09:24:04.029Z,17.03
2018-06-21T09:26:33.334Z,14.63
2018-06-21T09:29:02.668Z,17.67
2018-06-21T09:31:31.979Z,14.40
2018-06-21T09:34:01.315Z,16.13
2018-06-21T09:36:34.898Z,14.50
2018-06-21T09:39:11.420Z,14.60
2018-06-21T09:41:46.711Z,14.77
2018-06-21T09:44:22.133Z,14.80
2018-06-21T09:46:56.859Z,14.87
2018-06-21T09:49:31.100Z,14.70
2018-06-21T09:52:03.137Z,15.63
2018-06-21T09:54:32.819Z,16.37
2018-06-21T09:57:02.214Z,16.97
2018-06-21T09:59:31.757Z,9.10
2018-06-21T10:02:01.053Z,8.13
2018-06-21T10:04:30.355Z,9.00
2018-06-21T10:06:59.610Z,7.83
2018-06-21T10:09:28.904Z,6.33
2018-06-21T10:11:58.181Z,7.30
2018-06-21T10:14:27.592Z,6.67
2018-06-21T10:16:56.879Z,6.73
2018-06-21T10:19:26.213Z,6.30
2018-06-21T10:21:55.463Z,7.13
2018-06-21T10:24:24.776Z,7.87
2018-06-21T10:26:54.097Z,7.83
2018-06-21T10:29:23.354Z,8.53
2018-06-21T10:31:52.757Z,8.17
2018-06-21T10:34:22.055Z,8.23
2018-06-21T10:36:51.358Z,8.40
2018-06-21T10:39:20.633Z,7.60
2018-06-21T10:41:49.952Z,9.13
2018-06-21T10:44:19.307Z,6.57
2018-06-21T10:46:48.661Z,6.60
2018-06-21T10:49:18.179Z,5.53
2018-06-21T10:51:47.571Z,5.13
2018-06-21T10:54:16.991Z,6.10
2018-06-21T10:56:46.405Z,4.10
2018-06-21T10:59:15.772Z,3.63
2018-06-21T11:01:45.161Z,4.20
2018-06-21T11:04:14.277Z,3.13
2018-06-21T11:06:43.490Z,3.30
2018-06-21T11:09:12.853Z,2.93
2018-06-21T11:11:44.589Z,2.63
2018-06-21T11:14:14.002Z,3.27
2018-06-21T11:16:44.597Z,1.60
2018-06-21T11:19:14.673Z,1.30
2018-06-21T11:21:45.738Z,1.63
2018-06-21T11:24:15.204Z,1.90
2018-06-21T11:26:44.702Z,2.80
2018-06-21T11:29:13.970Z,1.70
2018-06-21T11:31:43.557Z,1.90
2018-06-21T11:34:13.175Z,1.73
2018-06-21T11:36:42.614Z,1.87
2018-06-21T11:39:12.861Z,1.73
2018-06-21T11:41:43.450Z,2.00
2018-06-21T11:44:12.721Z,1.60
2018-06-21T11:46:41.803Z,2.40
2018-06-21T11:49:10.676Z,2.53
2018-06-21T11:51:40.567Z,1.63
2018-06-21T11:54:12.208Z,1.80
2018-06-21T11:56:41.767Z,1.70
2018-06-21T11:59:11.091Z,2.07
2018-06-21T12:01:40.591Z,2.13
2018-06-21T12:04:10.046Z,1.60
2018-06-21T12:06:39.513Z,1.70
2018-06-21T12:09:09.921Z,1.70
2018-06-21T12:11:39.620Z,1.70
2018-06-21T12:14:09.056Z,2.23
2018-06-21T12:16:38.439Z,1.73
2018-06-21T12:19:07.550Z,2.10
2018-06-21T12:21:36.523Z,2.03
2018-06-21T12:24:05.727Z,2.20
2018-06-21T12:26:34.761Z,1.80
2018-06-21T12:29:04.041Z,2.30
2018-06-21T12:31:33.649Z,2.30
2018-06-21T12:34:02.970Z,2.00
2018-06-21T12:36:32.379Z,2.00
2018-06-21T12:39:01.828Z,2.03
2018-06-21T12:41:31.064Z,1.33
2018-06-21T12:44:00.519Z,1.63
2018-06-21T12:46:29.757Z,1.33
2018-06-21T12:48:59.183Z,1.60
2018-06-21T12:51:28.557Z,1.50
2018-06-21T12:53:57.547Z,2.00
2018-06-21T12:56:26.818Z,1.90
2018-06-21T12:58:56.383Z,2.57
2018-06-21T13:01:25.657Z,1.37
2018-06-21T13:03:54.968Z,1.67
2018-06-21T13:06:24.131Z,1.20
2018-06-21T13:09:04.935Z,1.20
2018-06-21T13:12:49.720Z,1.00
2018-06-21T13:15:19.145Z,1.70
2018-06-21T13:17:48.292Z,1.87
2018-06-21T13:20:17.616Z,1.40
2018-06-21T13:22:47.851Z,1.10
2018-06-21T13:25:18.582Z,1.70
2018-06-21T13:27:47.940Z,1.20
2018-06-21T13:30:17.448Z,1.13
2018-06-21T13:32:46.845Z,1.67
2018-06-21T13:35:16.189Z,1.10
2018-06-21T13:37:45.617Z,1.97
2018-06-21T13:40:14.924Z,1.10
2018-06-21T13:42:44.221Z,0.90
2018-06-21T13:45:13.520Z,1.00
2018-06-21T13:47:42.890Z,1.30
2018-06-21T13:50:12.301Z,1.50
2018-06-21T13:52:41.693Z,1.10
2018-06-21T13:55:11.010Z,1.70
2018-06-21T13:57:40.317Z,1.23
2018-06-21T14:00:09.674Z,1.03
2018-06-21T14:02:38.949Z,1.97
2018-06-21T14:05:08.431Z,1.30
2018-06-21T14:07:37.967Z,0.90
2018-06-21T14:10:07.208Z,1.10
2018-06-21T14:12:36.688Z,1.40
2018-06-21T14:15:06.067Z,1.20
2018-06-21T14:17:41.737Z,1.47
2018-06-21T14:20:11.174Z,1.03
2018-06-21T14:22:40.493Z,1.40
2018-06-21T14:25:09.808Z,1.20
2018-06-21T14:27:39.314Z,1.10
2018-06-21T14:30:08.666Z,1.00
2018-06-21T14:32:37.922Z,1.83
2018-06-21T14:35:07.300Z,1.00
2018-06-21T14:37:36.824Z,1.20
2018-06-21T14:40:06.303Z,1.40
2018-06-21T14:42:35.731Z,1.80
2018-06-21T14:45:06.019Z,1.47
2018-06-21T14:47:36.277Z,2.17
2018-06-21T14:50:05.776Z,1.47
2018-06-21T14:52:35.159Z,1.07
2018-06-21T14:55:04.542Z,1.00
2018-06-21T14:57:34.924Z,1.10
2018-06-21T15:00:05.069Z,1.13
2018-06-21T15:02:34.545Z,1.40
2018-06-21T15:05:04.379Z,1.30
2018-06-21T15:07:33.962Z,1.03
2018-06-21T15:10:03.577Z,1.27
2018-06-21T15:15:04.385Z,1.00
2018-06-21T15:17:33.791Z,1.70
2018-06-21T15:20:03.063Z,1.70
2018-06-21T15:22:32.328Z,1.53
2018-06-21T15:25:01.934Z,1.83
2018-06-21T15:27:31.407Z,2.07
2018-06-21T15:30:00.937Z,1.30
2018-06-21T15:32:29.910Z,1.63
2018-06-21T15:34:59.187Z,2.33
2018-06-21T15:37:28.461Z,1.20
2018-06-21T15:39:57.772Z,1.30
2018-06-21T15:42:27.065Z,1.70
2018-06-21T15:44:56.418Z,1.90
2018-06-21T15:47:25.909Z,1.63
2018-06-21T15:49:56.854Z,1.30
2018-06-21T15:52:26.375Z,1.30
2018-06-21T15:54:55.819Z,1.27
2018-06-21T15:57:25.244Z,1.53
2018-06-21T15:59:54.780Z,1.10
2018-06-21T16:02:24.150Z,1.53
2018-06-21T16:04:54.377Z,1.37
2018-06-21T16:07:23.742Z,1.37
2018-06-21T16:09:53.194Z,1.30
2018-06-21T16:12:22.473Z,1.60
2018-06-21T16:14:52.797Z,1.23
2018-06-21T16:17:22.295Z,1.33
2018-06-21T16:19:51.697Z,2.07
2018-06-21T16:22:21.870Z,1.20
2018-06-21T16:24:51.527Z,1.40
2018-06-21T16:27:20.881Z,1.83
2018-06-21T16:29:50.410Z,2.07
2018-06-21T16:32:21.026Z,1.20
2018-06-21T16:34:51.670Z,1.20
2018-06-21T16:37:21.065Z,1.40
2018-06-21T16:39:50.377Z,1.23
2018-06-21T16:42:19.640Z,1.47
2018-06-21T16:44:49.232Z,1.20
2018-06-21T16:47:18.611Z,1.10
2018-06-21T16:49:47.936Z,0.90
2018-06-21T16:52:19.805Z,1.37
2018-06-21T16:54:51.657Z,1.20
2018-06-21T16:57:21.923Z,1.20
2018-06-21T16:59:53.316Z,1.17
2018-06-21T17:02:23.030Z,1.27
2018-06-21T17:04:52.408Z,1.00
2018-06-21T17:07:23.057Z,2.57
2018-06-21T17:09:53.386Z,1.87
2018-06-21T17:12:22.835Z,1.37
2018-06-21T17:14:52.834Z,1.03
2018-06-21T17:17:23.054Z,1.57
2018-06-21T17:19:52.547Z,1.70
2018-06-21T17:22:22.702Z,1.40
2018-06-21T17:24:52.372Z,1.27
2018-06-21T17:27:23.908Z,1.43
2018-06-21T17:29:53.402Z,1.20
2018-06-21T17:32:22.893Z,1.30
2018-06-21T17:34:52.324Z,1.80
2018-06-21T17:37:21.959Z,1.63
2018-06-21T17:39:51.493Z,1.23
2018-06-21T17:42:22.454Z,1.10
2018-06-21T17:44:51.848Z,1.20
2018-06-21T17:47:21.815Z,1.40
2018-06-21T17:49:51.815Z,1.20
2018-06-21T17:52:21.665Z,1.77
2018-06-21T17:54:51.521Z,1.10
2018-06-21T17:57:21.016Z,0.97
2018-06-21T17:59:50.896Z,1.33
2018-06-21T18:02:20.230Z,1.10
2018-06-21T18:04:49.736Z,1.23
2018-06-21T18:07:20.826Z,1.60
2018-06-21T18:09:52.808Z,1.00
2018-06-21T18:12:23.644Z,1.60
2018-06-21T18:14:53.898Z,1.37
2018-06-21T18:17:23.585Z,0.80
2018-06-21T18:19:53.395Z,1.10
2018-06-21T18:22:24.608Z,1.00
2018-06-21T18:24:55.370Z,1.10
2018-06-21T18:27:25.471Z,1.53
2018-06-21T18:29:56.525Z,1.00
2018-06-21T18:32:27.050Z,1.10
2018-06-21T18:34:56.437Z,1.30
2018-06-21T18:37:27.684Z,1.13
2018-06-21T18:39:57.350Z,1.00
2018-06-21T18:42:26.705Z,0.90
2018-06-21T18:44:57.355Z,0.73
2018-06-21T18:47:27.058Z,0.80
2018-06-21T18:49:56.929Z,0.70
2018-06-21T18:52:26.345Z,0.80
2018-06-21T18:54:56.658Z,1.00
2018-06-21T18:57:26.181Z,0.77
2018-06-21T18:59:55.735Z,0.70
2018-06-21T19:02:25.203Z,1.00
2018-06-21T19:04:56.417Z,0.93
2018-06-21T19:07:30.046Z,0.63
2018-06-21T19:10:04.815Z,0.90
2018-06-21T19:12:34.238Z,0.93
2018-06-21T19:15:03.741Z,0.70
2018-06-21T19:17:33.103Z,0.93
2018-06-21T19:20:03.714Z,0.90
2018-06-21T19:22:33.780Z,0.80
2018-06-21T19:25:03.478Z,1.30
2018-06-21T19:27:34.247Z,0.80
2018-06-21T19:30:04.449Z,0.90
2018-06-21T19:32:34.133Z,2.07
2018-06-21T19:35:03.485Z,0.90
2018-06-21T19:37:32.821Z,0.60
2018-06-21T19:40:02.122Z,0.90
2018-06-21T19:42:31.358Z,1.00
2018-06-21T19:45:02.357Z,0.90
2018-06-21T19:47:31.779Z,1.10
2018-06-21T19:50:01.160Z,1.03
2018-06-21T19:52:30.519Z,0.60
2018-06-21T19:55:00.761Z,0.97
2018-06-21T19:57:30.102Z,2.30
2018-06-21T19:59:59.485Z,1.10
2018-06-21T20:02:34.313Z,2.57
2018-06-21T20:05:04.147Z,1.07
2018-06-21T20:07:33.821Z,1.77
2018-06-21T20:10:04.034Z,1.20
2018-06-21T20:12:34.667Z,1.10
2018-06-21T20:15:05.529Z,1.50
2018-06-21T20:17:35.981Z,2.00
2018-06-21T20:20:11.483Z,2.07
2018-06-21T20:22:43.474Z,1.23
2018-06-21T20:25:14.091Z,1.60
2018-06-21T20:27:44.687Z,1.13
2018-06-21T20:30:14.364Z,2.40
2018-06-21T20:32:44.562Z,1.20
2018-06-21T20:35:14.652Z,1.50
2018-06-21T20:37:43.941Z,1.60
2018-06-21T20:40:13.736Z,1.40
2018-06-21T20:42:44.587Z,1.80
2018-06-21T20:45:13.952Z,1.43
2018-06-21T20:47:43.297Z,1.00
2018-06-21T20:50:12.647Z,1.53
2018-06-21T20:52:41.656Z,2.73
2018-06-21T20:55:11.573Z,2.20
2018-06-21T20:57:41.797Z,1.40
2018-06-21T21:00:11.384Z,1.57
2018-06-21T21:02:42.035Z,1.90
2018-06-21T21:05:11.737Z,2.00
2018-06-21T21:07:42.800Z,2.00
2018-06-21T21:10:13.396Z,2.27
2018-06-21T21:12:42.945Z,3.17
2018-06-21T21:15:13.901Z,2.20
2018-06-21T21:17:44.383Z,1.63
2018-06-21T21:20:13.831Z,1.90
2018-06-21T21:22:44.221Z,2.20
2018-06-21T21:25:13.665Z,1.97
2018-06-21T21:27:44.335Z,1.63
2018-06-21T21:30:13.654Z,1.80
2018-06-21T21:32:43.273Z,1.83
2018-06-21T21:35:12.674Z,1.50
2018-06-21T21:37:42.163Z,1.60
2018-06-21T21:40:11.453Z,1.63
2018-06-21T21:42:40.681Z,1.93
2018-06-21T21:45:10.191Z,2.30
2018-06-21T21:47:39.523Z,2.03
2018-06-21T21:50:09.102Z,1.83
2018-06-21T21:52:38.853Z,2.17
2018-06-21T21:55:08.113Z,2.50
2018-06-21T21:57:37.379Z,1.80
2018-06-21T22:00:14.313Z,1.90
2018-06-21T22:02:43.569Z,2.37
2018-06-21T22:05:13.060Z,1.70
2018-06-21T22:07:42.525Z,1.50
2018-06-21T22:10:11.765Z,2.07
2018-06-21T22:12:41.052Z,1.37
2018-06-21T22:15:10.430Z,1.23
2018-06-21T22:17:39.821Z,2.23
2018-06-21T22:20:09.505Z,1.63
2018-06-21T22:22:38.942Z,2.87
2018-06-21T22:25:08.161Z,2.60
2018-06-21T22:27:37.466Z,1.73
2018-06-21T22:30:06.775Z,1.50
2018-06-21T22:32:36.117Z,1.47
2018-06-21T22:35:05.609Z,1.40
2018-06-21T22:37:34.902Z,2.40
2018-06-21T22:40:04.510Z,2.00
2018-06-21T22:42:33.904Z,2.27
2018-06-21T22:45:03.345Z,1.63
2018-06-21T22:47:32.664Z,2.20
2018-06-21T22:50:01.976Z,2.43
2018-06-21T22:52:31.357Z,2.27
2018-06-21T22:55:00.777Z,2.50
2018-06-21T22:57:30.094Z,3.13
2018-06-21T22:59:59.527Z,1.90
2018-06-21T23:02:28.836Z,3.20
2018-06-21T23:04:58.349Z,2.20
2018-06-21T23:07:27.839Z,1.70
2018-06-21T23:09:57.097Z,2.40
2018-06-21T23:12:26.357Z,3.20
2018-06-21T23:14:55.653Z,1.80
2018-06-21T23:17:25.036Z,1.93
2018-06-21T23:19:54.300Z,2.60
2018-06-21T23:22:23.553Z,1.70
2018-06-21T23:24:52.958Z,1.80
2018-06-21T23:27:22.228Z,2.07
2018-06-21T23:29:51.474Z,3.40
2018-06-21T23:32:20.720Z,2.17
2018-06-21T23:34:50.489Z,2.97
2018-06-21T23:37:19.769Z,3.03
2018-06-21T23:39:49.070Z,2.20
2018-06-21T23:42:18.462Z,2.07
2018-06-21T23:44:47.824Z,1.73
2018-06-21T23:47:17.137Z,2.50
2018-06-21T23:49:46.445Z,2.60
2018-06-21T23:52:15.751Z,2.00
2018-06-21T23:54:45.149Z,2.13
2018-06-21T23:57:14.374Z,3.03
2018-06-21T23:59:43.701Z,2.97
